createdAt,value
2019-04-01T00:04:00.355Z,14.43
2019-04-01T00:08:05.243Z,9.73
2019-04-01T00:12:10.135Z,11.40
2019-04-01T00:16:15.032Z,12.30
2019-04-01T00:20:19.944Z,13.67
2019-04-01T00:24:24.832Z,11.03
2019-04-01T00:28:29.733Z,11.53
2019-04-01T00:32:34.633Z,11.63
2019-04-01T00:36:40.501Z,10.70
2019-04-01T00:40:45.399Z,11.00
2019-04-01T00:44:50.293Z,12.17
2019-04-01T00:48:55.197Z,13.83
2019-04-01T00:53:00.091Z,10.20
2019-04-01T00:57:05.011Z,11.77
2019-04-01T01:01:10.401Z,12.47
2019-04-01T01:05:15.297Z,14.33
2019-04-01T01:09:20.200Z,17.13
2019-04-01T01:13:25.097Z,13.83
2019-04-01T01:17:29.997Z,10.50
2019-04-01T01:21:35.266Z,10.17
2019-04-01T01:25:40.150Z,11.67
2019-04-01T01:29:45.053Z,13.17
2019-04-01T01:33:50.927Z,12.67
2019-04-01T01:37:55.825Z,13.10
2019-04-01T01:42:00.718Z,10.93
2019-04-01T01:46:05.622Z,10.77
2019-04-01T01:50:10.512Z,11.33
2019-04-01T01:54:15.410Z,12.13
2019-04-01T01:58:20.307Z,10.77
2019-04-01T02:02:25.205Z,11.67
2019-04-01T02:06:30.124Z,12.60
2019-04-01T02:10:35.011Z,11.53
2019-04-01T02:14:39.910Z,11.70
2019-04-01T02:18:44.814Z,10.23
2019-04-01T02:22:49.721Z,10.87
2019-04-01T02:26:54.617Z,11.53
2019-04-01T02:30:59.507Z,11.63
2019-04-01T02:35:05.441Z,11.20
2019-04-01T02:39:10.343Z,10.83
2019-04-01T02:43:15.251Z,10.27
2019-04-01T02:47:20.219Z,12.43
2019-04-01T02:51:25.107Z,13.90
2019-04-01T02:55:30.018Z,10.40
2019-04-01T02:59:34.926Z,15.20
2019-04-01T03:03:39.793Z,9.67
2019-04-01T03:07:44.751Z,8.83
2019-04-01T03:11:49.628Z,13.60
2019-04-01T03:15:54.523Z,16.17
2019-04-01T03:19:59.425Z,13.97
2019-04-01T03:24:04.325Z,11.50
2019-04-01T03:28:09.295Z,11.13
2019-04-01T03:32:14.184Z,10.93
2019-04-01T03:36:19.089Z,9.90
2019-04-01T03:40:23.986Z,11.00
2019-04-01T03:44:28.886Z,9.37
2019-04-01T03:48:33.782Z,14.90
2019-04-01T03:52:38.660Z,12.87
2019-04-01T03:56:43.632Z,11.30
2019-04-01T04:00:48.536Z,13.50
2019-04-01T04:04:53.427Z,11.03
2019-04-01T04:09:02.045Z,11.37
2019-04-01T04:13:04.997Z,11.00
2019-04-01T04:17:09.882Z,14.87
2019-04-01T04:21:14.780Z,13.87
2019-04-01T04:25:19.682Z,11.73
2019-04-01T04:29:24.586Z,10.80
2019-04-01T04:33:29.477Z,12.97
2019-04-01T04:37:34.365Z,12.57
2019-04-01T04:41:39.275Z,14.53
2019-04-01T04:45:44.165Z,13.87
2019-04-01T04:49:49.066Z,15.53
2019-04-01T04:53:53.950Z,14.00
2019-04-01T04:57:58.844Z,13.43
2019-04-01T05:02:03.745Z,13.27
2019-04-01T05:06:08.639Z,11.80
2019-04-01T05:10:13.535Z,12.37
2019-04-01T05:14:18.423Z,11.40
2019-04-01T05:18:23.327Z,15.00
2019-04-01T05:22:29.365Z,15.33
2019-04-01T05:26:36.201Z,13.77
2019-04-01T05:30:41.276Z,13.17
2019-04-01T05:34:46.534Z,15.63
2019-04-01T05:38:51.433Z,15.33
2019-04-01T05:42:56.395Z,14.20
2019-04-01T05:47:01.294Z,17.60
2019-04-01T05:51:06.194Z,15.73
2019-04-01T05:55:11.146Z,17.73
2019-04-01T05:59:16.917Z,14.77
2019-04-01T06:03:21.816Z,14.57
2019-04-01T06:07:27.181Z,13.67
2019-04-01T06:11:32.448Z,21.50
2019-04-01T06:15:38.187Z,17.87
2019-04-01T06:19:43.072Z,15.43
2019-04-01T06:23:47.967Z,25.27
2019-04-01T06:27:52.932Z,18.53
2019-04-01T06:31:58.380Z,18.53
2019-04-01T06:36:03.294Z,19.13
2019-04-01T06:40:08.822Z,30.83
2019-04-01T06:44:13.730Z,16.70
2019-04-01T06:48:18.632Z,10.30
2019-04-01T06:52:23.536Z,10.07
2019-04-01T06:56:28.448Z,7.17
2019-04-01T07:00:33.347Z,7.53
2019-04-01T07:04:38.239Z,9.43
2019-04-01T07:08:43.137Z,9.23
2019-04-01T07:12:48.099Z,12.27
2019-04-01T07:16:53.077Z,9.77
2019-04-01T07:20:57.950Z,8.77
2019-04-01T07:25:03.114Z,10.53
2019-04-01T07:29:08.006Z,13.07
2019-04-01T07:33:12.972Z,8.57
2019-04-01T07:37:17.868Z,8.23
2019-04-01T07:41:22.740Z,10.20
2019-04-01T07:45:28.110Z,8.13
2019-04-01T07:49:33.098Z,7.57
2019-04-01T07:53:37.975Z,11.13
2019-04-01T07:57:42.869Z,10.83
2019-04-01T08:01:48.027Z,9.40
2019-04-01T08:05:52.934Z,14.97
2019-04-01T08:09:57.834Z,9.63
2019-04-01T08:14:03.605Z,12.40
2019-04-01T08:18:08.487Z,14.07
2019-04-01T08:22:13.417Z,14.13
2019-04-01T08:26:18.319Z,12.67
2019-04-01T08:30:23.216Z,14.97
2019-04-01T08:34:28.181Z,12.80
2019-04-01T08:38:33.075Z,9.43
2019-04-01T08:42:38.028Z,12.43
2019-04-01T08:46:43.004Z,15.17
2019-04-01T08:50:47.901Z,9.20
2019-04-01T08:54:52.793Z,7.93
2019-04-01T08:58:57.694Z,17.13
2019-04-01T09:03:02.588Z,16.30
2019-04-01T09:07:07.499Z,14.97
2019-04-01T09:11:12.663Z,17.80
2019-04-01T09:15:17.636Z,20.70
2019-04-01T09:19:22.538Z,18.13
2019-04-01T09:23:28.271Z,20.10
2019-04-01T09:27:33.183Z,17.43
2019-04-01T09:31:38.084Z,15.83
2019-04-01T09:35:42.994Z,18.53
2019-04-01T09:39:47.895Z,19.53
2019-04-01T09:43:52.804Z,20.77
2019-04-01T09:47:57.695Z,20.07
2019-04-01T09:52:03.999Z,18.27
2019-04-01T09:56:10.189Z,20.90
2019-04-01T10:00:15.632Z,22.13
2019-04-01T10:04:20.522Z,17.13
2019-04-01T10:08:25.437Z,18.50
2019-04-01T10:12:30.344Z,16.70
2019-04-01T10:16:35.249Z,18.80
2019-04-01T10:20:40.165Z,14.67
2019-04-01T10:24:46.039Z,18.90
2019-04-01T10:28:50.950Z,14.20
2019-04-01T10:32:55.852Z,16.93
2019-04-01T10:37:00.763Z,15.80
2019-04-01T10:41:06.634Z,15.57
2019-04-01T10:45:11.893Z,21.00
2019-04-01T10:49:16.894Z,15.30
2019-04-01T10:53:21.792Z,16.70
2019-04-01T10:57:26.734Z,21.33
2019-04-01T11:01:31.707Z,15.83
2019-04-01T11:05:36.551Z,17.13
2019-04-01T11:09:41.501Z,18.27
2019-04-01T11:13:46.403Z,15.07
2019-04-01T11:17:52.439Z,17.27
2019-04-01T11:21:57.702Z,15.73
2019-04-01T11:26:02.614Z,20.87
2019-04-01T11:30:08.490Z,18.17
2019-04-01T11:34:14.419Z,17.17
2019-04-01T11:38:19.329Z,21.57
2019-04-01T11:42:24.233Z,19.13
2019-04-01T11:46:29.176Z,26.30
2019-04-01T11:50:34.175Z,20.43
2019-04-01T11:54:39.026Z,23.00
2019-04-01T11:58:43.945Z,22.03
2019-04-01T12:02:48.857Z,25.10
2019-04-01T12:06:53.775Z,26.67
2019-04-01T12:10:59.658Z,20.77
2019-04-01T12:15:05.917Z,23.17
2019-04-01T12:19:10.833Z,21.47
2019-04-01T12:23:15.743Z,23.80
2019-04-01T12:27:20.657Z,23.53
2019-04-01T12:31:25.564Z,24.83
2019-04-01T12:35:30.472Z,23.40
2019-04-01T12:39:35.391Z,25.27
2019-04-01T12:43:40.311Z,24.83
2019-04-01T12:47:45.237Z,25.80
2019-04-01T12:51:50.195Z,23.87
2019-04-01T12:55:55.131Z,24.17
2019-04-01T13:00:00.044Z,21.80
2019-04-01T13:04:05.030Z,24.57
2019-04-01T13:08:09.944Z,24.37
2019-04-01T13:12:14.850Z,23.43
2019-04-01T13:16:19.766Z,30.73
2019-04-01T13:20:37.191Z,29.03
2019-04-01T13:24:31.286Z,26.50
2019-04-01T13:28:36.225Z,26.87
2019-04-01T13:32:41.115Z,25.80
2019-04-01T13:36:46.017Z,24.77
2019-04-01T13:40:50.938Z,24.83
2019-04-01T13:44:55.853Z,26.13
2019-04-01T13:49:04.228Z,23.13
2019-04-01T13:53:07.390Z,22.00
2019-04-01T13:57:13.091Z,25.90
2019-04-01T14:01:18.486Z,27.47
2019-04-01T14:05:24.962Z,25.07
2019-04-01T14:09:30.924Z,24.80
2019-04-01T14:13:35.899Z,27.97
2019-04-01T14:17:40.802Z,28.13
2019-04-01T14:21:45.737Z,23.73
2019-04-01T14:25:50.665Z,24.77
2019-04-01T14:29:55.584Z,25.93
2019-04-01T14:34:01.274Z,30.57
2019-04-01T14:38:06.279Z,27.13
2019-04-01T14:42:11.193Z,24.27
2019-04-01T14:46:16.108Z,25.10
2019-04-01T14:50:21.014Z,23.50
2019-04-01T14:54:25.934Z,21.23
2019-04-01T14:58:30.846Z,22.83
2019-04-01T15:02:35.752Z,22.10
2019-04-01T15:06:40.667Z,22.73
2019-04-01T15:10:45.579Z,23.57
2019-04-01T15:14:50.502Z,24.97
2019-04-01T15:18:55.412Z,25.17
2019-04-01T15:23:00.335Z,21.03
2019-04-01T15:27:05.259Z,22.77
2019-04-01T15:31:10.177Z,22.00
2019-04-01T15:35:15.084Z,25.43
2019-04-01T15:39:20.300Z,21.03
2019-04-01T15:43:25.177Z,24.67
2019-04-01T15:47:30.093Z,23.67
2019-04-01T15:51:35.012Z,24.13
2019-04-01T15:55:40.039Z,22.73
2019-04-01T15:59:44.953Z,23.97
2019-04-01T16:03:49.864Z,24.03
2019-04-01T16:07:54.781Z,23.80
2019-04-01T16:11:59.696Z,22.90
2019-04-01T16:16:04.718Z,23.77
2019-04-01T16:20:09.860Z,27.60
2019-04-01T16:24:15.333Z,25.47
2019-04-01T16:28:21.168Z,26.77
2019-04-01T16:32:26.084Z,23.00
2019-04-01T16:36:31.001Z,26.17
2019-04-01T16:40:35.976Z,24.93
2019-04-01T16:44:40.889Z,34.00
2019-04-01T16:48:46.588Z,24.67
2019-04-01T16:52:51.593Z,24.53
2019-04-01T16:56:56.512Z,19.17
2019-04-01T17:01:02.616Z,18.33
2019-04-01T17:05:08.149Z,20.77
2019-04-01T17:09:13.124Z,20.03
2019-04-01T17:13:18.048Z,22.43
2019-04-01T17:17:23.399Z,23.47
2019-04-01T17:21:28.305Z,21.80
2019-04-01T17:25:33.211Z,18.60
2019-04-01T17:29:40.427Z,20.87
2019-04-01T17:33:45.334Z,19.57
2019-04-01T17:37:50.246Z,17.90
2019-04-01T17:41:55.204Z,17.70
2019-04-01T17:46:00.281Z,20.67
2019-04-01T17:50:06.825Z,16.03
2019-04-01T17:54:11.729Z,18.53
2019-04-01T17:58:16.635Z,21.23
2019-04-01T18:02:29.709Z,18.57
2019-04-01T18:06:34.606Z,17.10
2019-04-01T18:10:39.510Z,15.33
2019-04-01T18:14:44.417Z,19.73
2019-04-01T18:18:49.324Z,17.53
2019-04-01T18:22:54.234Z,14.73
2019-04-01T18:26:59.135Z,19.17
2019-04-01T18:31:04.360Z,17.13
2019-04-01T18:35:09.692Z,19.77
2019-04-01T18:39:15.309Z,19.13
2019-04-01T18:43:20.487Z,17.73
2019-04-01T18:47:25.541Z,13.93
2019-04-01T18:51:30.451Z,20.43
2019-04-01T18:55:35.368Z,17.80
2019-04-01T18:59:40.270Z,21.47
2019-04-01T19:03:45.173Z,17.90
2019-04-01T19:07:50.071Z,14.77
2019-04-01T19:12:03.753Z,15.50
2019-04-01T19:16:05.845Z,22.27
2019-04-01T19:20:11.787Z,19.10
2019-04-01T19:24:16.747Z,22.37
2019-04-01T19:28:21.630Z,20.30
2019-04-01T19:32:27.383Z,22.10
2019-04-01T19:36:32.437Z,25.17
2019-04-01T19:40:37.341Z,26.40
2019-04-01T19:44:43.199Z,16.20
2019-04-01T19:48:48.418Z,22.30
2019-04-01T19:52:55.292Z,22.13
2019-04-01T19:56:59.935Z,23.33
2019-04-01T20:01:04.913Z,21.77
2019-04-01T20:05:10.061Z,23.07
2019-04-01T20:09:14.968Z,22.30
2019-04-01T20:13:19.861Z,16.17
2019-04-01T20:17:24.763Z,18.80
2019-04-01T20:21:29.660Z,17.03
2019-04-01T20:25:34.631Z,19.77
2019-04-01T20:29:40.302Z,16.87
2019-04-01T20:33:45.514Z,15.03
2019-04-01T20:37:50.405Z,20.37
2019-04-01T20:41:55.304Z,19.10
2019-04-01T20:46:00.201Z,19.73
2019-04-01T20:50:10.117Z,18.07
2019-04-01T20:54:16.013Z,18.20
2019-04-01T20:58:22.066Z,19.93
2019-04-01T21:02:26.967Z,17.37
2019-04-01T21:06:31.870Z,17.47
2019-04-01T21:10:36.765Z,13.53
2019-04-01T21:14:41.654Z,16.33
2019-04-01T21:18:47.987Z,20.50
2019-04-01T21:22:53.144Z,16.60
2019-04-01T21:26:58.045Z,17.43
2019-04-01T21:31:02.932Z,18.27
2019-04-01T21:35:09.007Z,16.33
2019-04-01T21:39:14.354Z,15.13
2019-04-01T21:43:20.314Z,17.07
2019-04-01T21:47:25.624Z,18.03
2019-04-01T21:51:33.064Z,16.13
2019-04-01T21:55:37.953Z,15.73
2019-04-01T21:59:42.848Z,18.63
2019-04-01T22:03:47.750Z,17.67
2019-04-01T22:07:52.650Z,17.13
2019-04-01T22:11:58.145Z,14.33
2019-04-01T22:16:03.313Z,20.40
2019-04-01T22:20:08.272Z,18.43
2019-04-01T22:24:13.184Z,20.70
2019-04-01T22:28:18.063Z,16.83
2019-04-01T22:32:22.976Z,19.03
2019-04-01T22:36:31.213Z,15.03
2019-04-01T22:40:34.516Z,11.90
2019-04-01T22:44:39.430Z,17.37
2019-04-01T22:48:44.326Z,16.63
2019-04-01T22:52:49.227Z,17.97
2019-04-01T22:56:54.111Z,19.17
2019-04-01T23:01:00.079Z,10.80
2019-04-01T23:05:06.210Z,20.80
2019-04-01T23:09:11.109Z,17.73
2019-04-01T23:13:16.078Z,18.90
2019-04-01T23:17:20.966Z,20.10
2019-04-01T23:21:25.869Z,18.40
2019-04-01T23:25:30.758Z,15.47
2019-04-01T23:29:35.667Z,18.10
2019-04-01T23:33:40.544Z,15.20
2019-04-01T23:37:45.429Z,16.70
2019-04-01T23:41:50.328Z,13.33
2019-04-01T23:45:55.232Z,15.67
2019-04-01T23:50:00.125Z,14.77
2019-04-01T23:54:05.021Z,13.53
2019-04-01T23:58:09.904Z,15.33
